Portland, Arkansas
Current Conditions -  °F | °C
As of 9:53 AM on Wednesday 28 Jan 2015 (Local Time) from KLLQ Reporting Station
Clear Clear  
Wind Chill: 50°   Ceiling: Unl
Heat Index: 50°   Visibility: 10mi
Dew Point: 36°   Wind: 6mph
Humidity: 59%   Direction: 140°SE
Pressure: 30.27"   Gusts: NA
Location:  33.24°N, 91.51°W
Report Text: KLLQ 281553Z AUTO 14005KT 10SM CLR 10/02 A3027 RMK AO2 SLP249 T01000022
Loading
Personal Weather Stations






























Interactive Weather Map New forecast layout! Learn more

10-Day Weather Forecast

Advertisements
Track Severe Weather on mobile